ASX454 LIRF-LIMJ
Flight info
| Callsign | ASX454 |
|---|---|
| Flight time | 0h 45m |
| Altitude | 30000 |
| Route | GILIO DCT ELB DCT BETEN M729 IDONA |
| Aircraft | A320/M-SDE3FGHIRWY/LB1 |
Departure
| Time | 2026-04-15 09:30 |
|---|---|
| Airport | Rome–Fiumicino Leonardo da Vinci International Airport (LIRF) |
Arrival
| Time | 2026-04-15 10:15 |
|---|---|
| Airport | Genoa Cristoforo Colombo Airport (LIMJ) |
| Time | Latitude | Longitude | Altitude | Speed | Heading |
|---|---|---|---|---|---|
| 2026-04-15 09:01 | 41.79739 | 12.26693 | 21 ft | 0 kts | 250° |
| 2026-04-15 09:26 | 41.79739 | 12.26692 | 22 ft | 1 kts | 250° |
| 2026-04-15 09:26 | 41.79731 | 12.26657 | 19 ft | 7 kts | 264° |
| 2026-04-15 09:27 | 41.79783 | 12.26611 | 19 ft | 13 kts | 339° |
| 2026-04-15 09:27 | 41.79886 | 12.26560 | 21 ft | 19 kts | 340° |
| 2026-04-15 09:27 | 41.80027 | 12.26491 | 18 ft | 23 kts | 340° |
| 2026-04-15 09:27 | 41.80145 | 12.26433 | 18 ft | 17 kts | 340° |
| 2026-04-15 09:28 | 41.80262 | 12.26388 | 16 ft | 18 kts | 321° |
| 2026-04-15 09:28 | 41.80324 | 12.26228 | 15 ft | 21 kts | 297° |
| 2026-04-15 09:28 | 41.80430 | 12.26163 | 13 ft | 17 kts | 15° |
| 2026-04-15 09:28 | 41.80553 | 12.26154 | 13 ft | 19 kts | 339° |
| 2026-04-15 09:29 | 41.80651 | 12.26111 | 19 ft | 14 kts | 344° |
| 2026-04-15 09:29 | 41.80721 | 12.26064 | 17 ft | 8 kts | 270° |
| 2026-04-15 09:29 | 41.80692 | 12.25970 | 15 ft | 23 kts | 251° |
| 2026-04-15 09:29 | 41.80549 | 12.25444 | 13 ft | 94 kts | 249° |
| 2026-04-15 09:30 | 41.80252 | 12.24378 | 9 ft | 147 kts | 249° |
| 2026-04-15 09:30 | 41.79877 | 12.22988 | 384 ft | 157 kts | 253° |
| 2026-04-15 09:30 | 41.79518 | 12.21615 | 986 ft | 155 kts | 251° |
| 2026-04-15 09:30 | 41.79308 | 12.20218 | 1542 ft | 155 kts | 270° |
| 2026-04-15 09:31 | 41.79274 | 12.18775 | 2074 ft | 154 kts | 270° |
| 2026-04-15 09:31 | 41.79240 | 12.17330 | 2701 ft | 155 kts | 270° |
| 2026-04-15 09:31 | 41.79200 | 12.15878 | 3136 ft | 156 kts | 270° |
| 2026-04-15 09:31 | 41.79155 | 12.14411 | 3557 ft | 159 kts | 270° |
| 2026-04-15 09:32 | 41.79113 | 12.12843 | 3788 ft | 179 kts | 269° |
| 2026-04-15 09:32 | 41.79067 | 12.11073 | 4014 ft | 202 kts | 269° |
| 2026-04-15 09:32 | 41.79019 | 12.09081 | 4244 ft | 227 kts | 269° |
| 2026-04-15 09:32 | 41.79002 | 12.06853 | 4583 ft | 251 kts | 270° |
| 2026-04-15 09:33 | 41.79000 | 12.04400 | 5035 ft | 272 kts | 270° |
| 2026-04-15 09:33 | 41.79003 | 12.01826 | 5785 ft | 280 kts | 271° |
| 2026-04-15 09:33 | 41.79007 | 11.99193 | 6628 ft | 285 kts | 271° |
| 2026-04-15 09:33 | 41.79008 | 11.96517 | 7427 ft | 289 kts | 271° |
| 2026-04-15 09:34 | 41.79002 | 11.93800 | 8238 ft | 293 kts | 270° |
| 2026-04-15 09:34 | 41.78993 | 11.91082 | 9033 ft | 297 kts | 270° |
| 2026-04-15 09:34 | 41.78982 | 11.88291 | 9831 ft | 301 kts | 270° |
| 2026-04-15 09:34 | 41.79110 | 11.85442 | 10330 ft | 315 kts | 281° |
| 2026-04-15 09:35 | 41.79760 | 11.82539 | 10527 ft | 336 kts | 296° |
| 2026-04-15 09:35 | 41.81016 | 11.79856 | 10997 ft | 344 kts | 312° |
| 2026-04-15 09:35 | 41.82619 | 11.77453 | 11655 ft | 348 kts | 313° |
| 2026-04-15 09:35 | 41.84245 | 11.75019 | 12347 ft | 351 kts | 313° |
| 2026-04-15 09:36 | 41.85884 | 11.72562 | 13036 ft | 355 kts | 313° |
| 2026-04-15 09:36 | 41.87542 | 11.70076 | 13721 ft | 359 kts | 313° |
| 2026-04-15 09:36 | 41.89215 | 11.67563 | 14333 ft | 363 kts | 313° |
| 2026-04-15 09:36 | 41.90902 | 11.65036 | 14949 ft | 365 kts | 313° |
| 2026-04-15 09:37 | 41.92604 | 11.62489 | 15549 ft | 368 kts | 314° |
| 2026-04-15 09:37 | 41.94324 | 11.59918 | 16158 ft | 372 kts | 314° |
| 2026-04-15 09:37 | 41.96060 | 11.57321 | 16761 ft | 375 kts | 314° |
| 2026-04-15 09:37 | 41.97813 | 11.54701 | 17348 ft | 378 kts | 314° |
| 2026-04-15 09:38 | 41.99578 | 11.52063 | 17951 ft | 382 kts | 314° |
| 2026-04-15 09:38 | 42.01359 | 11.49394 | 18515 ft | 385 kts | 314° |
| 2026-04-15 09:38 | 42.03157 | 11.46692 | 19055 ft | 389 kts | 314° |
| 2026-04-15 09:38 | 42.04966 | 11.43964 | 19607 ft | 392 kts | 314° |
| 2026-04-15 09:39 | 42.06767 | 11.41246 | 20154 ft | 395 kts | 314° |
| 2026-04-15 09:39 | 42.08604 | 11.38470 | 20703 ft | 398 kts | 314° |
| 2026-04-15 09:39 | 42.10460 | 11.35668 | 21213 ft | 402 kts | 314° |
| 2026-04-15 09:39 | 42.12326 | 11.32852 | 21735 ft | 405 kts | 314° |
| 2026-04-15 09:40 | 42.14214 | 11.30000 | 22252 ft | 408 kts | 314° |
| 2026-04-15 09:40 | 42.16109 | 11.27135 | 22799 ft | 411 kts | 314° |
| 2026-04-15 09:40 | 42.18022 | 11.24239 | 23321 ft | 414 kts | 314° |
| 2026-04-15 09:40 | 42.19943 | 11.21324 | 23781 ft | 417 kts | 314° |
| 2026-04-15 09:41 | 42.21882 | 11.18382 | 24201 ft | 420 kts | 314° |
| 2026-04-15 09:41 | 42.23829 | 11.15426 | 24627 ft | 423 kts | 314° |
| 2026-04-15 09:41 | 42.25786 | 11.12451 | 25030 ft | 425 kts | 313° |
| 2026-04-15 09:41 | 42.27759 | 11.09445 | 25433 ft | 428 kts | 313° |
| 2026-04-15 09:42 | 42.29737 | 11.06430 | 25830 ft | 430 kts | 313° |
| 2026-04-15 09:42 | 42.31729 | 11.03390 | 26225 ft | 433 kts | 313° |
| 2026-04-15 09:42 | 42.33730 | 11.00334 | 26609 ft | 435 kts | 313° |
| 2026-04-15 09:42 | 42.35718 | 10.97297 | 26987 ft | 438 kts | 313° |
| 2026-04-15 09:43 | 42.37741 | 10.94204 | 27351 ft | 440 kts | 313° |
| 2026-04-15 09:43 | 42.39775 | 10.91092 | 27720 ft | 442 kts | 313° |
| 2026-04-15 09:43 | 42.41815 | 10.87967 | 28086 ft | 445 kts | 313° |
| 2026-04-15 09:43 | 42.43867 | 10.84812 | 28452 ft | 447 kts | 312° |
| 2026-04-15 09:44 | 42.45931 | 10.81630 | 28811 ft | 450 kts | 312° |
| 2026-04-15 09:44 | 42.48007 | 10.78428 | 29165 ft | 452 kts | 312° |
| 2026-04-15 09:44 | 42.50086 | 10.75220 | 29516 ft | 454 kts | 312° |
| 2026-04-15 09:44 | 42.52182 | 10.71981 | 29863 ft | 457 kts | 311° |
| 2026-04-15 09:45 | 42.54276 | 10.68746 | 30010 ft | 453 kts | 311° |
| 2026-04-15 09:45 | 42.56327 | 10.65580 | 30024 ft | 442 kts | 312° |
| 2026-04-15 09:45 | 42.60361 | 10.59350 | 30024 ft | 438 kts | 311° |
| 2026-04-15 09:46 | 42.64370 | 10.53125 | 30029 ft | 437 kts | 311° |
| 2026-04-15 09:46 | 42.68363 | 10.46913 | 30029 ft | 436 kts | 311° |
| 2026-04-15 09:47 | 42.72456 | 10.40820 | 30040 ft | 435 kts | 319° |
| 2026-04-15 09:47 | 42.77428 | 10.36295 | 30021 ft | 433 kts | 332° |
| 2026-04-15 09:48 | 42.82712 | 10.32329 | 30030 ft | 433 kts | 332° |
| 2026-04-15 09:48 | 42.87997 | 10.28344 | 30041 ft | 434 kts | 332° |
| 2026-04-15 09:49 | 42.93279 | 10.24344 | 30060 ft | 434 kts | 332° |
| 2026-04-15 09:49 | 42.98561 | 10.20338 | 30059 ft | 434 kts | 332° |
| 2026-04-15 09:50 | 43.03851 | 10.16324 | 30059 ft | 435 kts | 332° |
| 2026-04-15 09:50 | 43.08245 | 10.12985 | 30060 ft | 434 kts | 331° |
| 2026-04-15 09:51 | 43.13533 | 10.08961 | 30079 ft | 434 kts | 331° |
| 2026-04-15 09:51 | 43.18810 | 10.04930 | 30072 ft | 434 kts | 331° |
| 2026-04-15 09:52 | 43.24081 | 10.00894 | 30077 ft | 433 kts | 330° |
| 2026-04-15 09:52 | 43.29346 | 9.96854 | 30093 ft | 433 kts | 330° |
| 2026-04-15 09:53 | 43.34597 | 9.92828 | 29955 ft | 428 kts | 330° |
| 2026-04-15 09:53 | 43.37174 | 9.90846 | 29611 ft | 420 kts | 330° |
| 2026-04-15 09:53 | 43.39712 | 9.88892 | 29130 ft | 416 kts | 330° |
| 2026-04-15 09:54 | 43.42199 | 9.86976 | 28675 ft | 412 kts | 330° |
| 2026-04-15 09:54 | 43.44685 | 9.85057 | 28216 ft | 409 kts | 330° |
| 2026-04-15 09:54 | 43.47159 | 9.83146 | 27777 ft | 406 kts | 332° |
| 2026-04-15 09:54 | 43.49618 | 9.81248 | 27352 ft | 402 kts | 332° |
| 2026-04-15 09:55 | 43.52049 | 9.79367 | 26928 ft | 398 kts | 332° |
| 2026-04-15 09:55 | 43.54455 | 9.77503 | 26512 ft | 395 kts | 332° |
| 2026-04-15 09:55 | 43.56845 | 9.75649 | 26121 ft | 392 kts | 332° |
| 2026-04-15 09:55 | 43.59217 | 9.73808 | 25709 ft | 390 kts | 332° |
| 2026-04-15 09:56 | 43.61583 | 9.71969 | 25301 ft | 389 kts | 332° |
| 2026-04-15 09:56 | 43.63929 | 9.70144 | 24901 ft | 387 kts | 332° |
| 2026-04-15 09:56 | 43.68607 | 9.66498 | 24067 ft | 384 kts | 332° |
| 2026-04-15 09:57 | 43.70937 | 9.64681 | 23629 ft | 383 kts | 332° |
| 2026-04-15 09:57 | 43.73254 | 9.62873 | 23157 ft | 381 kts | 332° |
| 2026-04-15 09:57 | 43.75554 | 9.61076 | 22722 ft | 378 kts | 332° |
| 2026-04-15 09:57 | 43.77835 | 9.59295 | 22285 ft | 375 kts | 332° |
| 2026-04-15 09:58 | 43.80106 | 9.57522 | 21842 ft | 372 kts | 332° |
| 2026-04-15 09:58 | 43.82326 | 9.55789 | 21410 ft | 370 kts | 332° |
| 2026-04-15 09:58 | 43.84560 | 9.54043 | 20975 ft | 367 kts | 332° |
| 2026-04-15 09:58 | 43.86772 | 9.52311 | 20525 ft | 364 kts | 332° |
| 2026-04-15 09:59 | 43.88970 | 9.50588 | 20085 ft | 361 kts | 332° |
| 2026-04-15 09:59 | 43.91149 | 9.48877 | 19650 ft | 359 kts | 332° |
| 2026-04-15 09:59 | 43.93317 | 9.47169 | 19215 ft | 357 kts | 332° |
| 2026-04-15 09:59 | 43.95467 | 9.45456 | 18776 ft | 356 kts | 329° |
| 2026-04-15 10:00 | 43.97388 | 9.43309 | 18338 ft | 356 kts | 315° |
| 2026-04-15 10:00 | 43.98883 | 9.40579 | 17874 ft | 355 kts | 301° |
| 2026-04-15 10:00 | 43.99866 | 9.37452 | 17438 ft | 353 kts | 289° |
| 2026-04-15 10:00 | 44.00636 | 9.34223 | 17000 ft | 351 kts | 290° |
| 2026-04-15 10:01 | 44.01405 | 9.31024 | 16574 ft | 348 kts | 290° |
| 2026-04-15 10:01 | 44.02174 | 9.27830 | 16143 ft | 346 kts | 290° |
| 2026-04-15 10:01 | 44.02936 | 9.24666 | 15718 ft | 344 kts | 290° |
| 2026-04-15 10:01 | 44.03693 | 9.21522 | 15294 ft | 343 kts | 290° |
| 2026-04-15 10:02 | 44.04447 | 9.18384 | 14870 ft | 341 kts | 290° |
| 2026-04-15 10:02 | 44.05196 | 9.15258 | 14449 ft | 340 kts | 289° |
| 2026-04-15 10:02 | 44.05940 | 9.12147 | 14033 ft | 338 kts | 289° |
| 2026-04-15 10:02 | 44.06682 | 9.09041 | 13577 ft | 337 kts | 289° |
| 2026-04-15 10:03 | 44.07417 | 9.05960 | 13157 ft | 334 kts | 290° |
| 2026-04-15 10:03 | 44.08142 | 9.02911 | 12749 ft | 331 kts | 290° |
| 2026-04-15 10:03 | 44.08861 | 8.99875 | 12339 ft | 328 kts | 290° |
| 2026-04-15 10:03 | 44.09565 | 8.96906 | 11940 ft | 326 kts | 290° |
| 2026-04-15 10:04 | 44.10275 | 8.93912 | 11534 ft | 324 kts | 290° |
| 2026-04-15 10:04 | 44.10980 | 8.90932 | 11131 ft | 323 kts | 290° |
| 2026-04-15 10:04 | 44.11681 | 8.87965 | 10719 ft | 322 kts | 290° |
| 2026-04-15 10:04 | 44.12378 | 8.85011 | 10322 ft | 321 kts | 291° |
| 2026-04-15 10:05 | 44.13067 | 8.82082 | 10134 ft | 313 kts | 290° |
| 2026-04-15 10:05 | 44.13859 | 8.79333 | 9995 ft | 300 kts | 300° |
| 2026-04-15 10:05 | 44.14836 | 8.76791 | 9622 ft | 295 kts | 301° |
| 2026-04-15 10:05 | 44.15803 | 8.74279 | 8977 ft | 293 kts | 301° |
| 2026-04-15 10:06 | 44.16760 | 8.71780 | 8358 ft | 292 kts | 301° |
| 2026-04-15 10:06 | 44.17708 | 8.69298 | 7770 ft | 288 kts | 302° |
| 2026-04-15 10:06 | 44.18639 | 8.66852 | 7231 ft | 284 kts | 303° |
| 2026-04-15 10:06 | 44.19559 | 8.64434 | 6762 ft | 278 kts | 303° |
| 2026-04-15 10:07 | 44.20434 | 8.62127 | 6593 ft | 261 kts | 303° |
| 2026-04-15 10:07 | 44.21255 | 8.59969 | 6468 ft | 242 kts | 306° |
| 2026-04-15 10:07 | 44.22318 | 8.58308 | 6366 ft | 222 kts | 330° |
| 2026-04-15 10:07 | 44.23680 | 8.57506 | 6195 ft | 207 kts | 354° |
| 2026-04-15 10:08 | 44.25073 | 8.57549 | 5875 ft | 195 kts | 15° |
| 2026-04-15 10:08 | 44.26364 | 8.58049 | 5619 ft | 191 kts | 16° |
| 2026-04-15 10:08 | 44.27635 | 8.58530 | 5341 ft | 187 kts | 16° |
| 2026-04-15 10:08 | 44.28866 | 8.58992 | 5064 ft | 177 kts | 15° |
| 2026-04-15 10:09 | 44.30026 | 8.59423 | 4787 ft | 168 kts | 15° |
| 2026-04-15 10:09 | 44.31134 | 8.59831 | 4552 ft | 161 kts | 15° |
| 2026-04-15 10:09 | 44.32166 | 8.60211 | 4338 ft | 144 kts | 15° |
| 2026-04-15 10:09 | 44.33120 | 8.60562 | 4135 ft | 140 kts | 15° |
| 2026-04-15 10:10 | 44.34039 | 8.60919 | 3931 ft | 138 kts | 20° |
| 2026-04-15 10:10 | 44.34886 | 8.61548 | 3742 ft | 139 kts | 34° |
| 2026-04-15 10:10 | 44.35577 | 8.62497 | 3520 ft | 139 kts | 50° |
| 2026-04-15 10:10 | 44.36077 | 8.63641 | 3322 ft | 137 kts | 54° |
| 2026-04-15 10:11 | 44.36553 | 8.64794 | 3106 ft | 136 kts | 54° |
| 2026-04-15 10:11 | 44.37027 | 8.65938 | 2902 ft | 136 kts | 54° |
| 2026-04-15 10:11 | 44.37503 | 8.67084 | 2695 ft | 136 kts | 55° |
| 2026-04-15 10:11 | 44.37979 | 8.68233 | 2489 ft | 137 kts | 56° |
| 2026-04-15 10:12 | 44.38448 | 8.69374 | 2296 ft | 135 kts | 56° |
| 2026-04-15 10:12 | 44.38918 | 8.70524 | 2099 ft | 135 kts | 55° |
| 2026-04-15 10:12 | 44.39383 | 8.71658 | 1901 ft | 135 kts | 57° |
| 2026-04-15 10:12 | 44.39858 | 8.72817 | 1687 ft | 137 kts | 57° |
| 2026-04-15 10:13 | 44.40330 | 8.73969 | 1530 ft | 136 kts | 56° |
| 2026-04-15 10:13 | 44.40809 | 8.75102 | 1322 ft | 136 kts | 55° |
| 2026-04-15 10:13 | 44.41265 | 8.76256 | 1211 ft | 136 kts | 60° |
| 2026-04-15 10:13 | 44.41620 | 8.77493 | 956 ft | 137 kts | 66° |
| 2026-04-15 10:14 | 44.41882 | 8.78759 | 802 ft | 137 kts | 77° |
| 2026-04-15 10:14 | 44.41962 | 8.80122 | 572 ft | 145 kts | 89° |
| 2026-04-15 10:14 | 44.41712 | 8.81491 | 331 ft | 143 kts | 102° |
| 2026-04-15 10:14 | 44.41459 | 8.82816 | 54 ft | 140 kts | 97° |
| 2026-04-15 10:15 | 44.41242 | 8.83997 | 20 ft | 106 kts | 106° |
| 2026-04-15 10:15 | 44.41083 | 8.84754 | 19 ft | 56 kts | 105° |
| 2026-04-15 10:15 | 44.41020 | 8.85083 | 18 ft | 20 kts | 99° |
| 2026-04-15 10:15 | 44.41072 | 8.85215 | 19 ft | 11 kts | 34° |
| 2026-04-15 10:16 | 44.41147 | 8.85245 | 20 ft | 12 kts | 24° |
| 2026-04-15 10:16 | 44.41223 | 8.85281 | 20 ft | 6 kts | 14° |
| 2026-04-15 10:16 | 44.41271 | 8.85264 | 22 ft | 9 kts | 324° |
| 2026-04-15 10:16 | 44.41309 | 8.85185 | 20 ft | 11 kts | 285° |
| 2026-04-15 10:17 | 44.41325 | 8.85103 | 20 ft | 7 kts | 285° |
| 2026-04-15 10:17 | 44.41358 | 8.85084 | 20 ft | 3 kts | 16° |
| 2026-04-15 10:17 | 44.41383 | 8.85094 | 20 ft | 0 kts | 16° |
| 2026-04-15 10:17 | 44.41393 | 8.85098 | 20 ft | 3 kts | 15° |
| 2026-04-15 10:18 | 44.41395 | 8.85099 | 20 ft | 0 kts | 15° |